createdAt,value
2023-03-29T00:01:57.693Z,98262.00
2023-03-29T00:06:03.481Z,98261.09
2023-03-29T00:10:07.698Z,98265.34
2023-03-29T00:14:12.141Z,98267.03
2023-03-29T00:18:15.893Z,98272.19
2023-03-29T00:22:18.881Z,98269.44
2023-03-29T00:26:22.414Z,98269.81
2023-03-29T00:30:27.338Z,98265.03
2023-03-29T00:34:31.860Z,98279.72
2023-03-29T00:38:35.289Z,98275.69
2023-03-29T00:42:39.382Z,98286.06
2023-03-29T00:46:43.797Z,98285.31
2023-03-29T00:50:52.341Z,98282.84
2023-03-29T00:54:57.818Z,98283.84
2023-03-29T00:59:05.502Z,98281.38
2023-03-29T01:03:15.333Z,98262.66
2023-03-29T01:07:24.522Z,98273.00
2023-03-29T01:11:30.463Z,98262.81
2023-03-29T01:15:34.798Z,98256.06
2023-03-29T01:19:45.524Z,98251.56
2023-03-29T01:24:19.512Z,98244.59
2023-03-29T01:28:29.042Z,98237.53
2023-03-29T01:32:36.697Z,98236.44
2023-03-29T01:36:42.717Z,98244.66
2023-03-29T01:40:46.439Z,98254.75
2023-03-29T01:44:58.024Z,98245.13
2023-03-29T01:49:06.026Z,98234.69
2023-03-29T01:53:13.649Z,98242.28
2023-03-29T01:57:18.334Z,98243.00
2023-03-29T02:01:27.649Z,98241.19
2023-03-29T02:05:33.174Z,98242.91
2023-03-29T02:09:40.134Z,98227.50
2023-03-29T02:13:43.314Z,98232.66
2023-03-29T02:17:49.757Z,98247.06
2023-03-29T02:22:02.059Z,98258.16
2023-03-29T02:26:07.065Z,98265.78
2023-03-29T02:30:12.405Z,98258.72
2023-03-29T02:34:23.804Z,98255.97
2023-03-29T02:38:28.692Z,98250.50
2023-03-29T02:42:33.480Z,98258.88
2023-03-29T02:46:37.989Z,98268.88
2023-03-29T02:50:46.870Z,98263.38
2023-03-29T02:54:51.822Z,98256.28
2023-03-29T02:58:54.979Z,98251.69
2023-03-29T03:03:00.662Z,98259.94
2023-03-29T03:07:06.788Z,98237.44
2023-03-29T03:11:10.403Z,98259.28
2023-03-29T03:15:13.808Z,98249.59
2023-03-29T03:19:17.115Z,98257.97
2023-03-29T03:23:21.505Z,98232.88
2023-03-29T03:27:27.790Z,98215.69
2023-03-29T03:31:30.957Z,98216.44
2023-03-29T03:35:35.115Z,98243.69
2023-03-29T03:39:39.868Z,98196.38
2023-03-29T03:43:46.064Z,98217.78
2023-03-29T03:47:49.577Z,98208.22
2023-03-29T03:51:53.167Z,98202.16
2023-03-29T03:55:58.363Z,98198.66
2023-03-29T04:00:01.697Z,98214.91
2023-03-29T04:04:05.089Z,98215.63
2023-03-29T04:08:08.360Z,98223.56
2023-03-29T04:12:13.198Z,98211.41
2023-03-29T04:16:16.220Z,98213.28
2023-03-29T04:20:19.997Z,98216.38
2023-03-29T04:24:24.633Z,98229.78
2023-03-29T04:28:29.596Z,98228.66
2023-03-29T04:32:32.582Z,98229.16
2023-03-29T04:36:36.639Z,98221.88
2023-03-29T04:40:39.791Z,98232.69
2023-03-29T04:44:44.381Z,98226.22
2023-03-29T04:48:47.397Z,98229.22
2023-03-29T04:52:51.060Z,98225.53
2023-03-29T04:56:54.583Z,98223.44
2023-03-29T05:01:00.028Z,98224.00
2023-03-29T05:05:03.091Z,98222.16
2023-03-29T05:09:09.351Z,98220.19
2023-03-29T05:13:12.811Z,98218.34
2023-03-29T05:17:17.549Z,98218.94
2023-03-29T05:21:20.853Z,98218.72
2023-03-29T05:25:26.107Z,98200.69
2023-03-29T05:29:29.067Z,98209.88
2023-03-29T05:33:34.006Z,98209.88
2023-03-29T05:37:37.085Z,98200.69
2023-03-29T05:41:40.783Z,98190.72
2023-03-29T05:45:43.838Z,98196.91
2023-03-29T05:49:48.796Z,98188.66
2023-03-29T05:53:52.319Z,98192.34
2023-03-29T05:57:56.024Z,98191.75
2023-03-29T06:02:00.480Z,98189.19
2023-03-29T06:06:06.155Z,98182.25
2023-03-29T06:10:10.715Z,98189.06
2023-03-29T06:15:10.515Z,98194.03
2023-03-29T06:19:13.667Z,98195.66
2023-03-29T06:23:18.359Z,98192.88
2023-03-29T06:27:21.260Z,98201.84
2023-03-29T06:31:24.968Z,98206.59
2023-03-29T06:35:28.581Z,98207.00
2023-03-29T06:39:33.543Z,98195.44
2023-03-29T06:43:36.728Z,98185.75
2023-03-29T06:47:40.391Z,98194.09
2023-03-29T06:51:43.343Z,98179.56
2023-03-29T06:55:56.102Z,98182.25
2023-03-29T06:59:58.857Z,98186.59
2023-03-29T07:04:05.088Z,98183.50
2023-03-29T07:08:14.195Z,98188.84
2023-03-29T07:12:19.552Z,98182.75
2023-03-29T07:16:23.328Z,98187.22
2023-03-29T07:20:27.858Z,98192.38
2023-03-29T07:24:30.755Z,98192.88
2023-03-29T07:28:37.629Z,98188.25
2023-03-29T07:32:44.460Z,98188.63
2023-03-29T07:36:48.139Z,98192.31
2023-03-29T07:40:51.078Z,98196.84
2023-03-29T07:44:56.114Z,98196.22
2023-03-29T07:48:59.152Z,98193.72
2023-03-29T07:53:03.765Z,98201.53
2023-03-29T07:57:07.009Z,98202.53
2023-03-29T08:01:18.853Z,98195.88
2023-03-29T08:05:37.944Z,98197.97
2023-03-29T08:09:45.293Z,98192.16
2023-03-29T08:13:48.210Z,98186.34
2023-03-29T08:17:53.058Z,98182.16
2023-03-29T08:21:56.013Z,98188.31
2023-03-29T08:26:00.118Z,98180.34
2023-03-29T08:30:03.264Z,98182.75
2023-03-29T08:34:08.080Z,98181.84
2023-03-29T08:38:12.652Z,98179.28
2023-03-29T08:42:35.772Z,98181.84
2023-03-29T08:46:45.327Z,98176.94
2023-03-29T08:50:55.730Z,98177.28
2023-03-29T08:55:01.701Z,98180.13
2023-03-29T08:59:08.360Z,98176.25
2023-03-29T09:03:18.420Z,98167.88
2023-03-29T09:07:25.956Z,98169.59
2023-03-29T09:11:44.527Z,98162.84
2023-03-29T09:15:56.809Z,98151.88
2023-03-29T09:20:09.634Z,98157.06
2023-03-29T09:24:22.995Z,98146.25
2023-03-29T09:28:31.385Z,98149.81
2023-03-29T09:32:41.300Z,98153.22
2023-03-29T09:36:52.534Z,98165.69
2023-03-29T09:41:04.745Z,98155.59
2023-03-29T09:45:09.721Z,98159.41
2023-03-29T09:49:18.229Z,98156.94
2023-03-29T09:53:22.962Z,98157.91
2023-03-29T09:57:31.175Z,98160.13
2023-03-29T10:01:41.864Z,98156.72
2023-03-29T10:05:48.317Z,98144.47
2023-03-29T10:09:55.226Z,98140.94
2023-03-29T10:14:04.550Z,98133.75
2023-03-29T10:18:13.717Z,98131.72
2023-03-29T10:22:20.570Z,98138.41
2023-03-29T10:26:29.682Z,98132.13
2023-03-29T10:30:38.196Z,98121.38
2023-03-29T10:34:41.603Z,98113.97
2023-03-29T10:38:46.303Z,98109.84
2023-03-29T10:42:50.861Z,98103.25
2023-03-29T10:46:56.089Z,98100.88
2023-03-29T10:51:02.062Z,98107.25
2023-03-29T10:55:07.240Z,98101.44
2023-03-29T10:59:31.249Z,98088.19
2023-03-29T11:04:04.471Z,98081.16
2023-03-29T11:08:20.085Z,98076.63
2023-03-29T11:12:30.669Z,98082.03
2023-03-29T11:16:41.348Z,98079.56
2023-03-29T11:20:57.567Z,98078.31
2023-03-29T11:25:19.294Z,98078.03
2023-03-29T11:29:30.131Z,98071.03
2023-03-29T11:33:46.764Z,98069.09
2023-03-29T11:37:58.590Z,98060.94
2023-03-29T11:42:09.828Z,98066.63
2023-03-29T11:46:18.049Z,98058.44
2023-03-29T11:50:25.252Z,98051.31
2023-03-29T11:54:36.661Z,98046.28
2023-03-29T11:58:44.714Z,98041.44
2023-03-29T12:02:52.177Z,98038.53
2023-03-29T12:07:06.927Z,98036.06
2023-03-29T12:11:20.031Z,98034.22
2023-03-29T12:15:25.714Z,98032.53
2023-03-29T12:19:32.898Z,98031.81
2023-03-29T12:23:36.021Z,98027.19
2023-03-29T12:27:49.332Z,98024.75
2023-03-29T12:32:01.959Z,98020.06
2023-03-29T12:36:22.034Z,98008.88
2023-03-29T12:40:29.164Z,98011.34
2023-03-29T12:44:34.915Z,98001.34
2023-03-29T12:48:40.074Z,97992.91
2023-03-29T12:52:44.411Z,97988.41
2023-03-29T12:56:58.902Z,97971.50
2023-03-29T13:01:09.427Z,97974.53
2023-03-29T13:05:31.980Z,97980.09
2023-03-29T13:09:48.204Z,97974.59
2023-03-29T13:13:52.969Z,97971.66
2023-03-29T13:18:05.565Z,97981.47
2023-03-29T13:22:21.845Z,97972.00
2023-03-29T13:26:44.239Z,97975.75
2023-03-29T13:30:59.567Z,97955.53
2023-03-29T13:35:15.337Z,97951.44
2023-03-29T13:39:23.789Z,97946.19
2023-03-29T13:43:34.283Z,97939.63
2023-03-29T13:47:55.009Z,97939.97
2023-03-29T13:52:17.320Z,97935.69
2023-03-29T13:56:27.019Z,97933.38
2023-03-29T14:00:37.353Z,97924.84
2023-03-29T14:04:46.336Z,97918.28
2023-03-29T14:08:51.082Z,97913.06
2023-03-29T14:12:56.946Z,97908.31
2023-03-29T14:17:02.357Z,97898.75
2023-03-29T14:21:06.927Z,97895.97
2023-03-29T14:25:17.475Z,97897.28
2023-03-29T14:29:21.854Z,97888.47
2023-03-29T14:33:27.991Z,97892.22
2023-03-29T14:37:31.705Z,97878.66
2023-03-29T14:41:39.444Z,97878.50
2023-03-29T14:45:42.980Z,97870.66
2023-03-29T14:49:47.443Z,97870.97
2023-03-29T14:53:51.220Z,97871.78
2023-03-29T14:57:58.057Z,97869.31
2023-03-29T15:02:01.396Z,97872.28
2023-03-29T15:06:06.817Z,97873.44
2023-03-29T15:10:18.951Z,97861.53
2023-03-29T15:14:27.009Z,97864.94
2023-03-29T15:18:35.132Z,97857.09
2023-03-29T15:22:38.940Z,97847.97
2023-03-29T15:26:43.362Z,97848.63
2023-03-29T15:30:57.395Z,97845.22
2023-03-29T15:35:10.884Z,97837.75
2023-03-29T15:39:15.461Z,97836.13
2023-03-29T15:43:20.329Z,97839.44
2023-03-29T15:47:25.560Z,97841.38
2023-03-29T15:51:29.203Z,97834.53
2023-03-29T15:55:33.526Z,97844.66
2023-03-29T15:59:37.338Z,97838.09
2023-03-29T16:03:41.998Z,97845.28
2023-03-29T16:07:45.642Z,97840.06
2023-03-29T16:11:49.599Z,97844.78
2023-03-29T16:15:52.680Z,97841.03
2023-03-29T16:19:57.293Z,97843.66
2023-03-29T16:24:00.757Z,97836.16
2023-03-29T16:28:04.967Z,97828.03
2023-03-29T16:32:08.357Z,97835.84
2023-03-29T16:36:13.455Z,97835.72
2023-03-29T16:40:17.041Z,97834.00
2023-03-29T16:44:23.782Z,97830.41
2023-03-29T16:48:27.261Z,97831.03
2023-03-29T16:52:32.646Z,97830.84
2023-03-29T16:56:37.158Z,97827.50
2023-03-29T17:00:41.026Z,97834.63
2023-03-29T17:04:44.561Z,97835.22
2023-03-29T17:08:50.542Z,97838.56
2023-03-29T17:12:53.744Z,97838.69
2023-03-29T17:16:56.797Z,97841.53
2023-03-29T17:21:01.837Z,97833.28
2023-03-29T17:25:07.909Z,97831.63
2023-03-29T17:29:10.907Z,97831.84
2023-03-29T17:33:15.289Z,97837.00
2023-03-29T17:37:18.697Z,97843.09
2023-03-29T17:41:24.046Z,97846.47
2023-03-29T17:45:27.379Z,97844.09
2023-03-29T17:49:30.365Z,97850.69
2023-03-29T17:53:33.690Z,97860.91
2023-03-29T17:57:38.317Z,97861.47
2023-03-29T18:01:42.037Z,97868.09
2023-03-29T18:05:45.273Z,97869.66
2023-03-29T18:09:48.462Z,97860.56
2023-03-29T18:13:56.126Z,97864.94
2023-03-29T18:17:59.343Z,97869.06
2023-03-29T18:22:02.491Z,97874.19
2023-03-29T18:26:08.703Z,97863.53
2023-03-29T18:30:16.739Z,97880.69
2023-03-29T18:34:22.763Z,97870.88
2023-03-29T18:38:25.977Z,97901.50
2023-03-29T18:42:29.387Z,97889.63
2023-03-29T18:46:34.547Z,97892.22
2023-03-29T18:50:40.671Z,97901.78
2023-03-29T18:54:44.287Z,97905.34
2023-03-29T18:58:48.213Z,97907.00
2023-03-29T19:02:52.869Z,97898.22
2023-03-29T19:06:56.952Z,97907.00
2023-03-29T19:11:03.527Z,97898.50
2023-03-29T19:15:07.906Z,97901.25
2023-03-29T19:19:13.339Z,97895.50
2023-03-29T19:23:16.385Z,97884.31
2023-03-29T19:27:20.703Z,97891.56
2023-03-29T19:31:23.999Z,97882.84
2023-03-29T19:35:28.956Z,97887.94
2023-03-29T19:39:32.232Z,97880.47
2023-03-29T19:43:36.100Z,97871.06
2023-03-29T19:47:44.150Z,97859.03
2023-03-29T19:51:48.708Z,97869.31
2023-03-29T19:55:52.464Z,97856.22
2023-03-29T19:59:55.764Z,97853.22
2023-03-29T20:03:59.864Z,97857.88
2023-03-29T20:08:04.750Z,97850.38
2023-03-29T20:12:07.753Z,97841.88
2023-03-29T20:16:13.926Z,97840.41
2023-03-29T20:20:17.210Z,97820.34
2023-03-29T20:24:21.885Z,97823.91
2023-03-29T20:28:27.497Z,97816.38
2023-03-29T20:32:31.183Z,97823.59
2023-03-29T20:36:34.582Z,97824.72
2023-03-29T20:40:41.703Z,97828.78
2023-03-29T20:44:50.585Z,97818.69
2023-03-29T20:48:54.457Z,97825.78
2023-03-29T20:53:03.768Z,97827.84
2023-03-29T20:57:09.062Z,97825.63
2023-03-29T21:01:14.789Z,97820.31
2023-03-29T21:05:18.544Z,97824.69
2023-03-29T21:09:23.680Z,97815.41
2023-03-29T21:13:28.436Z,97809.69
2023-03-29T21:17:31.432Z,97805.59
2023-03-29T21:21:35.539Z,97809.13
2023-03-29T21:25:38.539Z,97808.34
2023-03-29T21:30:13.795Z,97808.06
2023-03-29T21:34:16.738Z,97806.13
2023-03-29T21:38:20.250Z,97788.53
2023-03-29T21:42:23.551Z,97794.25
2023-03-29T21:46:28.730Z,97788.63
2023-03-29T21:50:33.785Z,97785.78
2023-03-29T21:54:37.293Z,97764.88
2023-03-29T21:58:40.745Z,97768.16
2023-03-29T22:02:47.581Z,97771.56
2023-03-29T22:06:50.693Z,97764.28
2023-03-29T22:10:57.072Z,97752.81
2023-03-29T22:15:00.097Z,97749.78
2023-03-29T22:19:05.827Z,97750.34
2023-03-29T22:23:08.777Z,97756.03
2023-03-29T22:27:12.820Z,97772.31
2023-03-29T22:31:17.776Z,97773.94
2023-03-29T22:35:22.417Z,97773.78
2023-03-29T22:39:25.378Z,97741.69
2023-03-29T22:43:29.081Z,97764.09
2023-03-29T22:47:32.081Z,97751.91
2023-03-29T22:51:37.480Z,97739.09
2023-03-29T22:55:40.638Z,97716.84
2023-03-29T22:59:43.990Z,97716.31
2023-03-29T23:03:46.986Z,97717.56
2023-03-29T23:07:52.117Z,97714.56
2023-03-29T23:11:54.993Z,97725.50
2023-03-29T23:16:00.405Z,97738.09
2023-03-29T23:20:05.978Z,97735.09
2023-03-29T23:24:10.794Z,97732.00
2023-03-29T23:28:13.887Z,97738.41
2023-03-29T23:32:17.859Z,97734.31
2023-03-29T23:36:23.082Z,97735.28
2023-03-29T23:40:28.184Z,97728.34
2023-03-29T23:44:31.132Z,97731.88
2023-03-29T23:48:34.843Z,97739.50
2023-03-29T23:52:38.196Z,97748.94
2023-03-29T23:56:43.286Z,97746.03
